sensor_id;sensor_type;location;lat;lon;timestamp;pressure;altitude;pressure_sealevel;temperature;humidity
13476;BME280;6810;63.824;20.288;2023-04-07T00:01:42;102774.44;;;4.43;60.74
13476;BME280;6810;63.824;20.288;2023-04-07T00:04:29;102708.44;;;4.07;60.20
13476;BME280;6810;63.824;20.288;2023-04-07T00:07:16;102776.19;;;4.44;61.28
13476;BME280;6810;63.824;20.288;2023-04-07T00:10:21;102751.53;;;4.30;60.88
13476;BME280;6810;63.824;20.288;2023-04-07T00:13:08;102733.97;;;4.24;60.70
13476;BME280;6810;63.824;20.288;2023-04-07T00:15:57;102733.06;;;4.27;59.85
13476;BME280;6810;63.824;20.288;2023-04-07T00:18:44;102765.63;;;4.42;59.99
13476;BME280;6810;63.824;20.288;2023-04-07T00:21:31;102755.97;;;4.43;60.13
13476;BME280;6810;63.824;20.288;2023-04-07T00:24:18;102758.59;;;4.43;60.70
13476;BME280;6810;63.824;20.288;2023-04-07T00:27:05;102763.00;;;4.42;60.65
13476;BME280;6810;63.824;20.288;2023-04-07T00:29:52;102759.47;;;4.43;60.33
13476;BME280;6810;63.824;20.288;2023-04-07T00:32:39;102744.50;;;4.32;60.81
13476;BME280;6810;63.824;20.288;2023-04-07T00:35:26;102751.53;;;4.43;60.47
13476;BME280;6810;63.824;20.288;2023-04-07T00:38:13;102637.22;;;3.72;61.46
13476;BME280;6810;63.824;20.288;2023-04-07T00:41:00;102717.22;;;4.27;60.71
13476;BME280;6810;63.824;20.288;2023-04-07T00:43:49;102737.47;;;4.43;60.48
13476;BME280;6810;63.824;20.288;2023-04-07T00:46:36;102741.88;;;4.45;61.66
13476;BME280;6810;63.824;20.288;2023-04-07T00:49:24;102715.47;;;4.30;61.09
13476;BME280;6810;63.824;20.288;2023-04-07T00:52:11;102737.47;;;4.46;61.85
13476;BME280;6810;63.824;20.288;2023-04-07T00:54:59;102743.63;;;4.51;62.39
13476;BME280;6810;63.824;20.288;2023-04-07T00:57:46;102705.81;;;4.31;61.05
13476;BME280;6810;63.824;20.288;2023-04-07T01:00:39;102743.63;;;4.54;62.58
13476;BME280;6810;63.824;20.288;2023-04-07T01:03:35;102740.09;;;4.52;61.38
13476;BME280;6810;63.824;20.288;2023-04-07T01:06:30;102741.00;;;4.57;62.28
13476;BME280;6810;63.824;20.288;2023-04-07T01:09:31;102733.94;;;4.57;61.36
13476;BME280;6810;63.824;20.288;2023-04-07T01:12:29;102715.47;;;4.44;62.06
13476;BME280;6810;63.824;20.288;2023-04-07T01:15:23;102699.63;;;4.35;62.72
13476;BME280;6810;63.824;20.288;2023-04-07T01:18:18;102726.00;;;4.60;61.76
13476;BME280;6810;63.824;20.288;2023-04-07T01:21:13;102676.78;;;4.28;62.49
13476;BME280;6810;63.824;20.288;2023-04-07T01:27:20;102701.38;;;4.43;62.18
13476;BME280;6810;63.824;20.288;2023-04-07T01:30:10;102729.53;;;4.64;63.33
13476;BME280;6810;63.824;20.288;2023-04-07T01:32:59;102730.41;;;4.64;63.42
13476;BME280;6810;63.824;20.288;2023-04-07T01:35:48;102731.28;;;4.65;62.29
13476;BME280;6810;63.824;20.288;2023-04-07T01:38:37;102733.91;;;4.65;62.29
13476;BME280;6810;63.824;20.288;2023-04-07T01:41:25;102723.34;;;4.60;63.09
13476;BME280;6810;63.824;20.288;2023-04-07T01:44:13;102736.56;;;4.65;63.42
13476;BME280;6810;63.824;20.288;2023-04-07T01:47:01;102739.19;;;4.63;63.16
13476;BME280;6810;63.824;20.288;2023-04-07T01:49:49;102735.69;;;4.64;63.06
13476;BME280;6810;63.824;20.288;2023-04-07T01:52:38;102682.91;;;4.33;62.52
13476;BME280;6810;63.824;20.288;2023-04-07T01:55:27;102695.25;;;4.38;62.50
13476;BME280;6810;63.824;20.288;2023-04-07T01:58:14;102687.31;;;4.38;63.55
13476;BME280;6810;63.824;20.288;2023-04-07T02:01:03;102709.28;;;4.48;62.58
13476;BME280;6810;63.824;20.288;2023-04-07T02:03:53;102712.81;;;4.51;63.44
13476;BME280;6810;63.824;20.288;2023-04-07T02:06:46;102739.19;;;4.62;63.83
13476;BME280;6810;63.824;20.288;2023-04-07T02:09:42;102733.91;;;4.60;63.80
13476;BME280;6810;63.824;20.288;2023-04-07T02:12:29;102736.56;;;4.60;63.10
13476;BME280;6810;63.824;20.288;2023-04-07T02:15:20;102737.44;;;4.59;63.62
13476;BME280;6810;63.824;20.288;2023-04-07T02:18:08;102722.50;;;4.46;63.98
13476;BME280;6810;63.824;20.288;2023-04-07T02:20:56;102741.00;;;4.58;64.24
13476;BME280;6810;63.824;20.288;2023-04-07T02:23:45;102699.66;;;4.30;63.53
13476;BME280;6810;63.824;20.288;2023-04-07T02:26:33;102718.09;;;4.44;63.97
13476;BME280;6810;63.824;20.288;2023-04-07T02:29:20;102738.34;;;4.55;63.37
13476;BME280;6810;63.824;20.288;2023-04-07T02:32:07;102706.66;;;4.36;63.38
13476;BME280;6810;63.824;20.288;2023-04-07T02:34:55;102731.28;;;4.53;64.10
13476;BME280;6810;63.824;20.288;2023-04-07T02:37:43;102727.78;;;4.52;64.14
13476;BME280;6810;63.824;20.288;2023-04-07T02:40:34;102702.28;;;4.32;63.52
13476;BME280;6810;63.824;20.288;2023-04-07T02:43:22;102674.13;;;4.13;64.22
13476;BME280;6810;63.824;20.288;2023-04-07T02:46:09;102738.38;;;4.49;64.68
13476;BME280;6810;63.824;20.288;2023-04-07T02:48:56;102732.19;;;4.47;63.93
13476;BME280;6810;63.824;20.288;2023-04-07T02:51:44;102676.78;;;4.23;64.40
13476;BME280;6810;63.824;20.288;2023-04-07T02:54:31;102731.31;;;4.45;63.90
13476;BME280;6810;63.824;20.288;2023-04-07T02:57:21;102722.50;;;4.43;63.42
13476;BME280;6810;63.824;20.288;2023-04-07T03:00:16;102729.56;;;4.43;63.37
13476;BME280;6810;63.824;20.288;2023-04-07T03:03:13;102724.28;;;4.41;65.02
13476;BME280;6810;63.824;20.288;2023-04-07T03:06:12;102726.03;;;4.39;63.57
13476;BME280;6810;63.824;20.288;2023-04-07T03:09:05;102658.31;;;3.96;64.06
13476;BME280;6810;63.824;20.288;2023-04-07T03:11:52;102726.03;;;4.38;64.58
13476;BME280;6810;63.824;20.288;2023-04-07T03:14:39;102724.28;;;4.32;64.37
13476;BME280;6810;63.824;20.288;2023-04-07T03:17:26;102712.84;;;4.23;65.19
13476;BME280;6810;63.824;20.288;2023-04-07T03:20:15;102740.97;;;4.34;63.76
13476;BME280;6810;63.824;20.288;2023-04-07T03:23:08;102735.72;;;4.33;63.99
13476;BME280;6810;63.824;20.288;2023-04-07T03:25:57;102735.72;;;4.30;64.33
13476;BME280;6810;63.824;20.288;2023-04-07T03:28:44;102745.41;;;4.31;64.84
13476;BME280;6810;63.824;20.288;2023-04-07T03:31:31;102735.72;;;4.30;65.42
13476;BME280;6810;63.824;20.288;2023-04-07T03:34:21;102735.72;;;4.28;65.10
13476;BME280;6810;63.824;20.288;2023-04-07T03:37:08;102727.78;;;4.28;65.56
13476;BME280;6810;63.824;20.288;2023-04-07T03:39:55;102726.03;;;4.27;64.43
13476;BME280;6810;63.824;20.288;2023-04-07T03:42:44;102684.69;;;4.01;64.23
13476;BME280;6810;63.824;20.288;2023-04-07T03:45:32;102690.84;;;4.03;64.71
13476;BME280;6810;63.824;20.288;2023-04-07T03:48:21;102731.31;;;4.18;65.04
13476;BME280;6810;63.824;20.288;2023-04-07T03:51:09;102733.06;;;4.19;64.23
13476;BME280;6810;63.824;20.288;2023-04-07T03:53:57;102741.00;;;4.21;65.42
13476;BME280;6810;63.824;20.288;2023-04-07T03:56:44;102743.63;;;4.19;65.58
13476;BME280;6810;63.824;20.288;2023-04-07T03:59:36;102740.13;;;4.19;64.84
13476;BME280;6810;63.824;20.288;2023-04-07T04:02:23;102683.84;;;3.91;65.51
13476;BME280;6810;63.824;20.288;2023-04-07T04:05:14;102736.59;;;4.17;65.34
13476;BME280;6810;63.824;20.288;2023-04-07T04:08:02;102667.97;;;3.79;64.92
13476;BME280;6810;63.824;20.288;2023-04-07T04:10:49;102741.00;;;4.16;64.61
13476;BME280;6810;63.824;20.288;2023-04-07T04:13:44;102739.25;;;4.15;65.80
13476;BME280;6810;63.824;20.288;2023-04-07T04:16:33;102692.59;;;3.83;65.08
13476;BME280;6810;63.824;20.288;2023-04-07T04:19:34;102733.06;;;4.09;66.05
13476;BME280;6810;63.824;20.288;2023-04-07T04:22:50;102738.34;;;4.13;64.94
13476;BME280;6810;63.824;20.288;2023-04-07T04:25:39;102741.00;;;4.12;65.88
13476;BME280;6810;63.824;20.288;2023-04-07T04:28:27;102705.78;;;3.98;65.11
13476;BME280;6810;63.824;20.288;2023-04-07T04:31:15;102726.91;;;4.10;66.30
13476;BME280;6810;63.824;20.288;2023-04-07T04:34:03;102736.59;;;4.11;66.25
13476;BME280;6810;63.824;20.288;2023-04-07T04:36:51;102690.84;;;3.86;65.77
13476;BME280;6810;63.824;20.288;2023-04-07T04:39:42;102693.50;;;3.89;65.53
13476;BME280;6810;63.824;20.288;2023-04-07T04:42:29;102670.63;;;3.75;65.65
13476;BME280;6810;63.824;20.288;2023-04-07T04:45:18;102723.41;;;4.06;66.65
13476;BME280;6810;63.824;20.288;2023-04-07T04:48:08;102717.25;;;4.03;66.33
13476;BME280;6810;63.824;20.288;2023-04-07T04:50:56;102721.63;;;4.04;65.60
13476;BME280;6810;63.824;20.288;2023-04-07T04:53:47;102727.78;;;4.10;66.24
13476;BME280;6810;63.824;20.288;2023-04-07T04:56:34;102726.91;;;4.10;65.55
13476;BME280;6810;63.824;20.288;2023-04-07T04:59:22;102711.06;;;4.05;65.91
13476;BME280;6810;63.824;20.288;2023-04-07T05:02:09;102708.44;;;3.99;66.97
13476;BME280;6810;63.824;20.288;2023-04-07T05:04:57;102737.47;;;4.11;65.60
13476;BME280;6810;63.824;20.288;2023-04-07T05:07:44;102739.25;;;4.12;67.06
13476;BME280;6810;63.824;20.288;2023-04-07T05:10:37;102684.69;;;3.81;66.49
13476;BME280;6810;63.824;20.288;2023-04-07T05:13:29;102728.69;;;4.14;65.90
13476;BME280;6810;63.824;20.288;2023-04-07T05:16:19;102682.06;;;3.83;66.20
13476;BME280;6810;63.824;20.288;2023-04-07T05:19:06;102738.34;;;4.15;66.87
13476;BME280;6810;63.824;20.288;2023-04-07T05:21:56;102735.72;;;4.12;67.34
13476;BME280;6810;63.824;20.288;2023-04-07T05:24:47;102719.88;;;4.07;66.58
13476;BME280;6810;63.824;20.288;2023-04-07T05:27:35;102740.09;;;4.16;66.48
13476;BME280;6810;63.824;20.288;2023-04-07T05:30:22;102741.00;;;4.16;67.40
13476;BME280;6810;63.824;20.288;2023-04-07T05:33:09;102743.63;;;4.16;67.16
13476;BME280;6810;63.824;20.288;2023-04-07T05:35:56;102641.59;;;3.56;67.16
13476;BME280;6810;63.824;20.288;2023-04-07T05:38:44;102742.75;;;4.16;67.25
13476;BME280;6810;63.824;20.288;2023-04-07T05:41:31;102747.16;;;4.15;67.46
13476;BME280;6810;63.824;20.288;2023-04-07T05:44:23;102741.00;;;4.16;67.67
13476;BME280;6810;63.824;20.288;2023-04-07T05:47:11;102751.53;;;4.16;66.45
13476;BME280;6810;63.824;20.288;2023-04-07T05:49:58;102749.81;;;4.17;67.40
13476;BME280;6810;63.824;20.288;2023-04-07T05:52:47;102747.16;;;4.17;67.47
13476;BME280;6810;63.824;20.288;2023-04-07T05:55:35;102751.53;;;4.18;66.72
13476;BME280;6810;63.824;20.288;2023-04-07T05:58:36;102734.81;;;4.14;67.52
13476;BME280;6810;63.824;20.288;2023-04-07T06:01:23;102747.16;;;4.18;66.42
13476;BME280;6810;63.824;20.288;2023-04-07T06:04:10;102717.25;;;4.03;67.55
13476;BME280;6810;63.824;20.288;2023-04-07T06:06:58;102736.59;;;4.15;66.85
13476;BME280;6810;63.824;20.288;2023-04-07T06:09:45;102741.88;;;4.18;66.55
13476;BME280;6810;63.824;20.288;2023-04-07T06:12:32;102755.06;;;4.20;67.34
13476;BME280;6810;63.824;20.288;2023-04-07T06:15:20;102748.91;;;4.21;67.34
13476;BME280;6810;63.824;20.288;2023-04-07T06:18:08;102749.81;;;4.21;67.55
13476;BME280;6810;63.824;20.288;2023-04-07T06:20:56;102743.63;;;4.19;67.09
13476;BME280;6810;63.824;20.288;2023-04-07T06:23:43;102749.81;;;4.23;68.12
13476;BME280;6810;63.824;20.288;2023-04-07T06:26:30;102731.31;;;4.14;66.65
13476;BME280;6810;63.824;20.288;2023-04-07T06:29:19;102748.91;;;4.25;66.65
13476;BME280;6810;63.824;20.288;2023-04-07T06:32:07;102716.34;;;4.08;67.64
13476;BME280;6810;63.824;20.288;2023-04-07T06:34:54;102753.31;;;4.26;68.39
13476;BME280;6810;63.824;20.288;2023-04-07T06:37:40;102722.53;;;4.12;67.42
13476;BME280;6810;63.824;20.288;2023-04-07T06:40:27;102750.69;;;4.29;67.30
13476;BME280;6810;63.824;20.288;2023-04-07T06:43:14;102746.25;;;4.31;67.52
13476;BME280;6810;63.824;20.288;2023-04-07T06:46:03;102713.72;;;4.08;67.83
13476;BME280;6810;63.824;20.288;2023-04-07T06:48:54;102730.44;;;4.24;68.51
13476;BME280;6810;63.824;20.288;2023-04-07T06:51:41;102726.03;;;4.20;68.05
13476;BME280;6810;63.824;20.288;2023-04-07T06:54:27;102754.19;;;4.39;67.25
13476;BME280;6810;63.824;20.288;2023-04-07T06:57:14;102739.25;;;4.33;68.12
13476;BME280;6810;63.824;20.288;2023-04-07T07:00:01;102680.31;;;4.01;68.38
13476;BME280;6810;63.824;20.288;2023-04-07T07:02:29;102726.03;;;4.33;67.16
13476;BME280;6810;63.824;20.288;2023-04-07T07:04:56;102752.44;;;4.47;68.61
13476;BME280;6810;63.824;20.288;2023-04-07T07:07:23;102752.41;;;4.50;68.65
13476;BME280;6810;63.824;20.288;2023-04-07T07:09:53;102697.03;;;4.20;67.69
13476;BME280;6810;63.824;20.288;2023-04-07T07:12:20;102750.66;;;4.55;68.48
13476;BME280;6810;63.824;20.288;2023-04-07T07:14:47;102753.31;;;4.58;68.73
13476;BME280;6810;63.824;20.288;2023-04-07T07:17:14;102750.66;;;4.59;68.49
13476;BME280;6810;63.824;20.288;2023-04-07T07:19:41;102767.38;;;4.63;68.37
13476;BME280;6810;63.824;20.288;2023-04-07T07:22:09;102762.97;;;4.65;67.87
13476;BME280;6810;63.824;20.288;2023-04-07T07:24:36;102740.09;;;4.52;68.46
13476;BME280;6810;63.824;20.288;2023-04-07T07:27:03;102760.31;;;4.65;67.84
13476;BME280;6810;63.824;20.288;2023-04-07T07:29:30;102761.22;;;4.67;68.46
13476;BME280;6810;63.824;20.288;2023-04-07T07:31:57;102772.66;;;4.76;69.09
13476;BME280;6810;63.824;20.288;2023-04-07T07:34:24;102777.94;;;4.78;68.97
13476;BME280;6810;63.824;20.288;2023-04-07T07:36:51;102712.81;;;4.42;68.38
13476;BME280;6810;63.824;20.288;2023-04-07T07:39:18;102772.63;;;4.84;69.03
13476;BME280;6810;63.824;20.288;2023-04-07T07:41:45;102779.66;;;4.86;68.99
13476;BME280;6810;63.824;20.288;2023-04-07T07:44:12;102776.16;;;4.86;69.32
13476;BME280;6810;63.824;20.288;2023-04-07T07:46:39;102781.44;;;4.90;68.64
13476;BME280;6810;63.824;20.288;2023-04-07T07:49:06;102784.06;;;4.92;68.33
13476;BME280;6810;63.824;20.288;2023-04-07T07:51:33;102773.50;;;4.90;69.18
13476;BME280;6810;63.824;20.288;2023-04-07T07:54:00;102787.56;;;4.95;68.50
13476;BME280;6810;63.824;20.288;2023-04-07T07:56:27;102777.91;;;4.91;68.99
13476;BME280;6810;63.824;20.288;2023-04-07T07:58:54;102767.34;;;4.90;68.49
13476;BME280;6810;63.824;20.288;2023-04-07T08:01:23;102767.31;;;4.94;69.88
13476;BME280;6810;63.824;20.288;2023-04-07T08:03:50;102761.16;;;4.94;69.06
13476;BME280;6810;63.824;20.288;2023-04-07T08:06:18;102766.44;;;4.95;68.83
13476;BME280;6810;63.824;20.288;2023-04-07T08:08:46;102764.66;;;4.99;69.61
13476;BME280;6810;63.824;20.288;2023-04-07T08:11:13;102769.94;;;5.00;69.46
13476;BME280;6810;63.824;20.288;2023-04-07T08:13:40;102770.84;;;4.98;70.28
13476;BME280;6810;63.824;20.288;2023-04-07T08:16:11;102790.19;;;5.07;70.22
13476;BME280;6810;63.824;20.288;2023-04-07T08:18:38;102790.19;;;5.07;69.13
13476;BME280;6810;63.824;20.288;2023-04-07T08:21:05;102796.34;;;5.09;70.31
13476;BME280;6810;63.824;20.288;2023-04-07T08:23:32;102791.06;;;5.08;70.35
13476;BME280;6810;63.824;20.288;2023-04-07T08:26:00;102799.00;;;5.09;69.52
13476;BME280;6810;63.824;20.288;2023-04-07T08:28:27;102761.16;;;4.92;70.52
13476;BME280;6810;63.824;20.288;2023-04-07T08:30:54;102779.59;;;5.10;70.01
13476;BME280;6810;63.824;20.288;2023-04-07T08:33:21;102787.53;;;5.09;69.86
13476;BME280;6810;63.824;20.288;2023-04-07T08:35:48;102786.66;;;5.11;70.90
13476;BME280;6810;63.824;20.288;2023-04-07T08:38:15;102792.81;;;5.12;70.41
13476;BME280;6810;63.824;20.288;2023-04-07T08:40:43;102795.44;;;5.12;70.22
13476;BME280;6810;63.824;20.288;2023-04-07T08:43:10;102791.94;;;5.13;70.61
13476;BME280;6810;63.824;20.288;2023-04-07T08:45:39;102793.69;;;5.12;70.14
13476;BME280;6810;63.824;20.288;2023-04-07T08:48:15;102786.69;;;5.07;70.92
13476;BME280;6810;63.824;20.288;2023-04-07T08:50:44;102799.88;;;5.11;69.96
13476;BME280;6810;63.824;20.288;2023-04-07T08:53:12;102791.94;;;5.11;70.44
13476;BME280;6810;63.824;20.288;2023-04-07T08:55:40;102805.16;;;5.13;70.71
13476;BME280;6810;63.824;20.288;2023-04-07T08:58:11;102730.38;;;4.75;70.90
13476;BME280;6810;63.824;20.288;2023-04-07T09:00:39;102770.84;;;4.99;70.55
13476;BME280;6810;63.824;20.288;2023-04-07T09:03:08;102762.03;;;4.96;70.89
13476;BME280;6810;63.824;20.288;2023-04-07T09:05:38;102807.78;;;5.16;70.91
13476;BME280;6810;63.824;20.288;2023-04-07T09:08:05;102791.94;;;5.16;70.43
13476;BME280;6810;63.824;20.288;2023-04-07T09:10:32;102797.22;;;5.17;70.26
13476;BME280;6810;63.824;20.288;2023-04-07T09:12:59;102805.13;;;5.19;71.66
13476;BME280;6810;63.824;20.288;2023-04-07T09:15:29;102796.31;;;5.18;71.68
13476;BME280;6810;63.824;20.288;2023-04-07T09:17:58;102809.53;;;5.20;71.85
13476;BME280;6810;63.824;20.288;2023-04-07T09:20:25;102746.19;;;4.87;71.22
13476;BME280;6810;63.824;20.288;2023-04-07T09:22:52;102798.09;;;5.21;71.90
13476;BME280;6810;63.824;20.288;2023-04-07T09:25:21;102798.09;;;5.21;72.09
13476;BME280;6810;63.824;20.288;2023-04-07T09:27:59;102806.88;;;5.21;72.03
13476;BME280;6810;63.824;20.288;2023-04-07T09:30:27;102806.03;;;5.22;71.30
13476;BME280;6810;63.824;20.288;2023-04-07T09:32:55;102740.91;;;4.87;71.99
13476;BME280;6810;63.824;20.288;2023-04-07T09:35:22;102786.66;;;5.13;71.82
13476;BME280;6810;63.824;20.288;2023-04-07T09:38:04;102806.88;;;5.23;71.03
13476;BME280;6810;63.824;20.288;2023-04-07T09:40:32;102812.16;;;5.24;72.13
13476;BME280;6810;63.824;20.288;2023-04-07T09:43:00;102831.56;;;5.25;71.84
13476;BME280;6810;63.824;20.288;2023-04-07T09:45:29;102803.41;;;5.18;72.03
13476;BME280;6810;63.824;20.288;2023-04-07T09:48:05;102806.88;;;5.26;72.42
13476;BME280;6810;63.824;20.288;2023-04-07T09:50:39;102781.41;;;5.05;71.56
13476;BME280;6810;63.824;20.288;2023-04-07T09:53:07;102814.78;;;5.26;72.00
13476;BME280;6810;63.824;20.288;2023-04-07T09:55:34;102809.50;;;5.29;71.01
13476;BME280;6810;63.824;20.288;2023-04-07T09:58:03;102815.66;;;5.31;71.60
13476;BME280;6810;63.824;20.288;2023-04-07T10:00:30;102819.19;;;5.33;72.22
13476;BME280;6810;63.824;20.288;2023-04-07T10:02:58;102784.88;;;5.18;71.24
13476;BME280;6810;63.824;20.288;2023-04-07T10:05:26;102813.91;;;5.36;72.42
13476;BME280;6810;63.824;20.288;2023-04-07T10:07:53;102824.47;;;5.39;71.90
13476;BME280;6810;63.824;20.288;2023-04-07T10:10:21;102814.75;;;5.41;72.35
13476;BME280;6810;63.824;20.288;2023-04-07T10:12:49;102827.94;;;5.44;71.49
13476;BME280;6810;63.824;20.288;2023-04-07T10:15:19;102823.53;;;5.48;71.91
13476;BME280;6810;63.824;20.288;2023-04-07T10:17:47;102827.97;;;5.50;72.77
13476;BME280;6810;63.824;20.288;2023-04-07T10:20:18;102736.47;;;5.05;72.04
13476;BME280;6810;63.824;20.288;2023-04-07T10:22:50;102814.72;;;5.55;71.84
13476;BME280;6810;63.824;20.288;2023-04-07T10:25:21;102803.28;;;5.48;72.86
13476;BME280;6810;63.824;20.288;2023-04-07T10:27:53;102776.00;;;5.35;72.42
13476;BME280;6810;63.824;20.288;2023-04-07T10:30:28;102806.72;;;5.65;72.37
13476;BME280;6810;63.824;20.288;2023-04-07T10:32:56;102813.75;;;5.72;72.27
13476;BME280;6810;63.824;20.288;2023-04-07T10:35:25;102816.38;;;5.77;72.66
13476;BME280;6810;63.824;20.288;2023-04-07T10:40:36;102763.53;;;5.63;72.55
13476;BME280;6810;63.824;20.288;2023-04-07T10:43:05;102802.22;;;5.93;72.43
13476;BME280;6810;63.824;20.288;2023-04-07T10:48:16;102770.50;;;5.85;72.65
13476;BME280;6810;63.824;20.288;2023-04-07T10:50:45;102801.19;;;6.12;72.88
13476;BME280;6810;63.824;20.288;2023-04-07T10:53:15;102755.44;;;5.92;72.63
13476;BME280;6810;63.824;20.288;2023-04-07T10:55:44;102740.47;;;5.91;72.25
13476;BME280;6810;63.824;20.288;2023-04-07T10:58:18;102811.56;;;6.40;72.67
13476;BME280;6810;63.824;20.288;2023-04-07T11:03:36;102809.59;;;6.65;72.11
13476;BME280;6810;63.824;20.288;2023-04-07T11:06:12;102806.88;;;6.75;72.30
13476;BME280;6810;63.824;20.288;2023-04-07T11:08:41;102804.13;;;6.86;72.35
13476;BME280;6810;63.824;20.288;2023-04-07T11:11:10;102803.09;;;6.97;71.88
13476;BME280;6810;63.824;20.288;2023-04-07T11:16:19;102770.34;;;7.03;71.28
13476;BME280;6810;63.824;20.288;2023-04-07T11:19:00;102797.41;;;7.34;71.67
13476;BME280;6810;63.824;20.288;2023-04-07T11:21:27;102798.13;;;7.46;70.94
13476;BME280;6810;63.824;20.288;2023-04-07T11:23:54;102788.28;;;7.57;70.90
13476;BME280;6810;63.824;20.288;2023-04-07T11:26:21;102783.66;;;7.71;70.86
13476;BME280;6810;63.824;20.288;2023-04-07T11:28:53;102779.13;;;7.79;70.44
13476;BME280;6810;63.824;20.288;2023-04-07T11:34:00;102748.81;;;7.94;70.35
13476;BME280;6810;63.824;20.288;2023-04-07T11:36:33;102789.94;;;8.28;69.52
13476;BME280;6810;63.824;20.288;2023-04-07T11:39:00;102777.44;;;8.34;69.13
13476;BME280;6810;63.824;20.288;2023-04-07T11:41:30;102748.31;;;8.27;69.05
13476;BME280;6810;63.824;20.288;2023-04-07T11:44:06;102780.50;;;8.62;69.06
13476;BME280;6810;63.824;20.288;2023-04-07T11:46:34;102782.06;;;8.75;68.05
13476;BME280;6810;63.824;20.288;2023-04-07T11:49:12;102748.53;;;8.65;67.75
13476;BME280;6810;63.824;20.288;2023-04-07T11:51:42;102786.06;;;8.97;67.77
13476;BME280;6810;63.824;20.288;2023-04-07T11:54:10;102745.59;;;8.82;67.13
13476;BME280;6810;63.824;20.288;2023-04-07T11:56:45;102787.41;;;9.19;67.76
13476;BME280;6810;63.824;20.288;2023-04-07T11:59:23;102753.00;;;9.10;66.83
13476;BME280;6810;63.824;20.288;2023-04-07T12:01:52;102777.19;;;9.42;66.96
13476;BME280;6810;63.824;20.288;2023-04-07T12:04:23;102790.28;;;9.53;66.16
13476;BME280;6810;63.824;20.288;2023-04-07T12:06:50;102798.91;;;9.64;66.22
13476;BME280;6810;63.824;20.288;2023-04-07T12:09:26;102788.97;;;9.73;66.17
13476;BME280;6810;63.824;20.288;2023-04-07T12:11:54;102787.13;;;9.75;65.05
13476;BME280;6810;63.824;20.288;2023-04-07T12:14:22;102798.25;;;9.94;64.59
13476;BME280;6810;63.824;20.288;2023-04-07T12:16:49;102797.16;;;10.04;64.41
13476;BME280;6810;63.824;20.288;2023-04-07T12:19:16;102792.53;;;10.12;65.17
13476;BME280;6810;63.824;20.288;2023-04-07T12:21:44;102797.56;;;10.24;64.53
13476;BME280;6810;63.824;20.288;2023-04-07T12:24:11;102785.94;;;10.28;64.60
13476;BME280;6810;63.824;20.288;2023-04-07T12:26:38;102785.59;;;10.41;64.11
13476;BME280;6810;63.824;20.288;2023-04-07T12:29:05;102784.53;;;10.48;63.36
13476;BME280;6810;63.824;20.288;2023-04-07T12:31:33;102791.47;;;10.56;63.15
13476;BME280;6810;63.824;20.288;2023-04-07T12:34:01;102775.56;;;10.52;62.92
13476;BME280;6810;63.824;20.288;2023-04-07T12:36:28;102804.50;;;10.68;62.11
13476;BME280;6810;63.824;20.288;2023-04-07T12:38:56;102806.13;;;10.73;61.54
13476;BME280;6810;63.824;20.288;2023-04-07T12:41:23;102806.84;;;10.80;62.02
13476;BME280;6810;63.824;20.288;2023-04-07T12:43:50;102803.28;;;10.79;60.93
13476;BME280;6810;63.824;20.288;2023-04-07T12:46:18;102805.75;;;10.87;61.43
13476;BME280;6810;63.824;20.288;2023-04-07T12:48:46;102783.88;;;10.74;61.05
13476;BME280;6810;63.824;20.288;2023-04-07T12:51:14;102758.34;;;10.64;60.48
13476;BME280;6810;63.824;20.288;2023-04-07T12:53:41;102805.47;;;10.99;59.99
13476;BME280;6810;63.824;20.288;2023-04-07T12:56:09;102806.22;;;11.02;59.59
13476;BME280;6810;63.824;20.288;2023-04-07T12:58:36;102808.78;;;11.07;59.34
13476;BME280;6810;63.824;20.288;2023-04-07T13:01:03;102795.44;;;11.07;59.29
13476;BME280;6810;63.824;20.288;2023-04-07T13:03:30;102781.16;;;11.09;59.22
13476;BME280;6810;63.824;20.288;2023-04-07T13:05:58;102791.50;;;11.21;58.84
13476;BME280;6810;63.824;20.288;2023-04-07T13:08:27;102794.03;;;11.26;58.56
13476;BME280;6810;63.824;20.288;2023-04-07T13:10:55;102792.19;;;11.28;59.14
13476;BME280;6810;63.824;20.288;2023-04-07T13:13:22;102796.56;;;11.30;58.65
13476;BME280;6810;63.824;20.288;2023-04-07T13:15:50;102770.22;;;11.18;58.35
13476;BME280;6810;63.824;20.288;2023-04-07T13:18:17;102791.13;;;11.33;57.88
13476;BME280;6810;63.824;20.288;2023-04-07T13:20:45;102800.84;;;11.36;58.25
13476;BME280;6810;63.824;20.288;2023-04-07T13:23:30;102792.78;;;11.37;58.23
13476;BME280;6810;63.824;20.288;2023-04-07T13:26:09;102796.31;;;11.39;57.70
13476;BME280;6810;63.824;20.288;2023-04-07T13:28:36;102772.63;;;11.27;56.85
13476;BME280;6810;63.824;20.288;2023-04-07T13:31:03;102795.34;;;11.42;56.66
13476;BME280;6810;63.824;20.288;2023-04-07T13:33:30;102772.72;;;11.24;57.12
13476;BME280;6810;63.824;20.288;2023-04-07T13:35:57;102750.72;;;11.15;56.23
13476;BME280;6810;63.824;20.288;2023-04-07T13:38:25;102800.75;;;11.39;56.34
13476;BME280;6810;63.824;20.288;2023-04-07T13:40:52;102793.63;;;11.39;56.20
13476;BME280;6810;63.824;20.288;2023-04-07T13:43:19;102783.88;;;11.38;55.92
13476;BME280;6810;63.824;20.288;2023-04-07T13:45:46;102797.19;;;11.40;55.55
13476;BME280;6810;63.824;20.288;2023-04-07T13:48:14;102790.25;;;11.33;55.30
13476;BME280;6810;63.824;20.288;2023-04-07T13:50:41;102765.78;;;11.17;55.93
13476;BME280;6810;63.824;20.288;2023-04-07T13:53:08;102800.84;;;11.36;55.85
13476;BME280;6810;63.824;20.288;2023-04-07T13:55:35;102803.56;;;11.34;55.79
13476;BME280;6810;63.824;20.288;2023-04-07T13:58:05;102804.50;;;11.33;54.84
13476;BME280;6810;63.824;20.288;2023-04-07T14:00:32;102802.78;;;11.31;55.56
13476;BME280;6810;63.824;20.288;2023-04-07T14:03:01;102806.41;;;11.28;54.68
13476;BME280;6810;63.824;20.288;2023-04-07T14:05:30;102754.75;;;10.99;54.92
13476;BME280;6810;63.824;20.288;2023-04-07T14:07:57;102788.09;;;11.15;54.49
13476;BME280;6810;63.824;20.288;2023-04-07T14:10:24;102788.94;;;11.17;54.96
13476;BME280;6810;63.824;20.288;2023-04-07T14:12:51;102803.09;;;11.19;55.09